createdAt,value
2023-02-24T14:56:32.973Z,37.95
2023-02-24T14:58:37.368Z,37.94
2023-02-24T15:00:41.767Z,37.83
2023-02-24T15:02:46.330Z,37.76
2023-02-24T15:04:50.853Z,38.01
2023-02-24T15:06:55.251Z,38.25
2023-02-24T15:09:00.148Z,39.19
2023-02-24T15:11:04.633Z,39.95
2023-02-24T15:13:09.012Z,39.97
2023-02-24T15:15:13.491Z,40.33
2023-02-24T15:17:17.936Z,40.48
2023-02-24T15:19:22.319Z,41.04
2023-02-24T15:21:26.682Z,40.9
2023-02-24T15:23:31.139Z,41.34
2023-02-24T15:25:44.865Z,41.5
2023-02-24T15:27:49.209Z,42.29
2023-02-24T15:29:53.634Z,42.9
2023-02-24T15:31:58.669Z,41.65
2023-02-24T15:34:03.183Z,42.12
2023-02-24T15:36:07.560Z,42.29
2023-02-24T15:38:11.917Z,42.81
2023-02-24T15:40:16.281Z,42.64
2023-02-24T15:42:20.684Z,42.5
2023-02-24T15:44:25.060Z,42.23
2023-02-24T15:46:29.673Z,42.33
2023-02-24T15:48:34.095Z,41.98
2023-02-24T15:50:38.537Z,42.13
2023-02-24T15:52:42.994Z,41.83
2023-02-24T15:54:47.364Z,41.76
2023-02-24T15:56:51.778Z,41.6
2023-02-24T15:58:56.289Z,40.73
2023-02-24T16:01:01.027Z,40.83
2023-02-24T16:03:05.737Z,40.87
2023-02-24T16:05:10.392Z,40.79
2023-02-24T16:07:14.784Z,41.1
2023-02-24T16:09:19.103Z,40.9
2023-02-24T16:11:23.489Z,40.92
2023-02-24T16:13:27.894Z,40.93
2023-02-24T16:15:32.258Z,40.68
2023-02-24T16:17:36.650Z,40.92
2023-02-24T16:19:41.036Z,40.53
2023-02-24T16:21:45.456Z,40.62
2023-02-24T16:23:50.117Z,40.61
2023-02-24T16:25:54.611Z,40.59
2023-02-24T16:27:58.887Z,40.64
2023-02-24T16:30:03.647Z,40.39
2023-02-24T16:32:09.029Z,40.65
2023-02-24T16:34:13.586Z,40.21
2023-02-24T16:36:19.199Z,39.94
2023-02-24T16:38:25.020Z,39.87
2023-02-24T16:40:29.398Z,40.05
2023-02-24T16:42:33.754Z,39.94
2023-02-24T16:44:38.153Z,40.23
2023-02-24T16:46:42.560Z,40.14
2023-02-24T16:48:46.883Z,39.92
2023-02-24T16:50:51.583Z,40.12
2023-02-24T16:52:55.986Z,40.08
2023-02-24T16:55:00.364Z,40.02
2023-02-24T16:57:04.769Z,39.94
2023-02-24T16:59:09.292Z,39.9
2023-02-24T17:01:14.183Z,39.8
2023-02-24T17:03:18.700Z,39.76
2023-02-24T17:05:23.055Z,39.85
2023-02-24T17:07:27.411Z,39.69
2023-02-24T17:09:31.904Z,39.69
2023-02-24T17:11:36.377Z,39.64
2023-02-24T17:13:40.738Z,39.76
2023-02-24T17:15:45.100Z,39.65
2023-02-24T17:17:49.612Z,39.88
2023-02-24T17:19:54.019Z,39.75
2023-02-24T17:21:58.407Z,39.73
2023-02-24T17:24:02.810Z,39.53
2023-02-24T17:26:07.149Z,39.64
2023-02-24T17:28:11.523Z,39.76
2023-02-24T17:30:15.881Z,39.74
2023-02-24T17:32:21.218Z,39.75
2023-02-24T17:34:26.031Z,39.77
2023-02-24T17:36:30.368Z,39.74
2023-02-24T17:38:34.705Z,39.63
2023-02-24T17:40:39.075Z,39.61
2023-02-24T17:42:43.544Z,39.57
2023-02-24T17:44:47.866Z,39.62
2023-02-24T17:46:52.557Z,39.76
2023-02-24T17:48:56.943Z,39.81
2023-02-24T17:51:01.403Z,39.3
2023-02-24T17:53:05.772Z,38.82
2023-02-24T17:55:10.140Z,37.64
2023-02-24T17:57:14.474Z,37.59
2023-02-24T17:59:19.036Z,38.09
2023-02-24T18:01:23.365Z,38.56
2023-02-24T18:03:27.900Z,37.86
2023-02-24T18:05:32.446Z,37.22
2023-02-24T18:07:36.841Z,37.24
2023-02-24T18:09:41.199Z,38.09
2023-02-24T18:11:45.507Z,38.31
2023-02-24T18:13:49.875Z,38.47
2023-02-24T18:15:54.458Z,38.67
2023-02-24T18:17:58.869Z,38.53
2023-02-24T18:20:03.313Z,38.79
2023-02-24T18:22:07.702Z,38.91
2023-02-24T18:24:12.078Z,38.79
2023-02-24T18:26:16.550Z,38.7
2023-02-24T18:28:20.919Z,38.86
2023-02-24T18:30:25.301Z,39
2023-02-24T18:32:30.517Z,39.06
2023-02-24T18:34:35.010Z,37.92
2023-02-24T18:36:39.486Z,34.58
2023-02-24T18:38:43.847Z,33.63
2023-02-24T18:40:48.327Z,33.05
2023-02-24T18:42:52.687Z,32.89
2023-02-24T18:44:57.202Z,32.73
2023-02-24T18:47:01.947Z,32.17
2023-02-24T18:49:06.529Z,32.14
2023-02-24T18:51:11.483Z,31.93
2023-02-24T18:53:15.950Z,31.81
2023-02-24T18:55:20.408Z,31.61
2023-02-24T18:57:24.987Z,31.37
2023-02-24T18:59:29.476Z,31.33
2023-02-24T19:01:34.453Z,31.29
2023-02-24T19:03:38.941Z,31.14
2023-02-24T19:05:43.519Z,31.18
2023-02-24T19:07:48.122Z,30.97
2023-02-24T19:09:52.553Z,31.11
2023-02-24T19:11:56.947Z,32.09
2023-02-24T19:14:01.443Z,32.07
2023-02-24T19:16:06.130Z,31.36
2023-02-24T19:18:10.491Z,31.02
2023-02-24T19:20:14.876Z,30.91
2023-02-24T19:22:19.201Z,30.83
2023-02-24T19:24:23.589Z,31.13
2023-02-24T19:26:28.015Z,30.45
2023-02-24T19:28:32.467Z,29.85
2023-02-24T19:30:36.869Z,31.2
2023-02-24T19:32:41.769Z,29.53
2023-02-24T19:34:46.305Z,29.15
2023-02-24T19:36:50.698Z,29
2023-02-24T19:38:55.143Z,28.88
2023-02-24T19:40:59.484Z,28.97
2023-02-24T19:43:03.863Z,28.89
2023-02-24T19:45:08.198Z,28.84
2023-02-24T19:47:12.499Z,28.65
2023-02-24T19:49:16.999Z,28.53
2023-02-24T19:51:21.373Z,28.38
2023-02-24T19:53:25.713Z,28.53
2023-02-24T19:55:30.040Z,28.61
2023-02-24T19:57:34.558Z,28.69
2023-02-24T19:59:39.011Z,30
2023-02-24T20:01:43.669Z,29.19
2023-02-24T20:03:48.049Z,28.72
2023-02-24T20:05:52.477Z,28.72
2023-02-24T20:07:56.952Z,28.77
2023-02-24T20:10:01.291Z,28.49
2023-02-24T20:12:05.706Z,28.45
2023-02-24T20:14:10.213Z,28.7
2023-02-24T20:16:14.709Z,28.05
2023-02-24T20:18:19.060Z,27.88
2023-02-24T20:20:23.397Z,27.5
2023-02-24T20:22:27.769Z,28.26
2023-02-24T20:24:32.155Z,29.13
2023-02-24T20:26:36.616Z,28.97
2023-02-24T20:28:41.021Z,29.71
2023-02-24T20:30:45.519Z,30.07
2023-02-24T20:32:50.346Z,30.56
2023-02-24T20:34:54.911Z,30.49
2023-02-24T20:36:59.240Z,30.84
2023-02-24T20:39:03.642Z,30.86
2023-02-24T20:41:07.987Z,30.89
2023-02-24T20:43:12.365Z,31.01
2023-02-24T20:45:16.710Z,30.99
2023-02-24T20:47:21.398Z,31.53
2023-02-24T20:49:25.861Z,31.75
2023-02-24T20:51:30.339Z,31.9
2023-02-24T20:53:38.017Z,32.03
2023-02-24T20:55:48.972Z,32.2
2023-02-24T20:57:53.308Z,33.06
2023-02-24T21:00:05.653Z,33.21
2023-02-24T21:02:10.116Z,33.23
2023-02-24T21:04:14.477Z,33.2
2023-02-24T21:06:18.817Z,33.43
2023-02-24T21:08:23.265Z,33.17
2023-02-24T21:10:27.646Z,33.52
2023-02-24T21:12:31.962Z,33.84
2023-02-24T21:14:36.326Z,33.66
2023-02-24T21:16:40.765Z,33.9
2023-02-24T21:18:45.298Z,34.1
2023-02-24T21:20:49.697Z,34.2
2023-02-24T21:22:54.041Z,34.33
2023-02-24T21:24:58.487Z,34.42
2023-02-24T21:27:03.179Z,34.33
2023-02-24T21:29:07.582Z,34.48
2023-02-24T21:31:13.039Z,34.8
2023-02-24T21:33:17.499Z,34.41
2023-02-24T21:35:21.849Z,33.84
2023-02-24T21:37:26.174Z,33.53
2023-02-24T21:39:30.671Z,33.61
2023-02-24T21:41:35.088Z,33.28
2023-02-24T21:43:39.486Z,33.33
2023-02-24T21:45:44.229Z,33.76
2023-02-24T21:47:48.614Z,33.77
2023-02-24T21:49:53.012Z,30.82
2023-02-24T21:51:57.364Z,29.38
2023-02-24T21:54:01.805Z,29.08
2023-02-24T21:56:06.218Z,28.76
2023-02-24T21:58:10.574Z,28.74
2023-02-24T22:00:14.908Z,28.51
2023-02-24T22:02:19.431Z,28.7
2023-02-24T22:04:23.817Z,28.34
2023-02-24T22:06:32.378Z,28.13
2023-02-24T22:08:36.827Z,27.97
2023-02-24T22:10:41.189Z,28
2023-02-24T22:12:45.502Z,27.97
2023-02-24T22:14:49.951Z,27.98
2023-02-24T22:16:54.414Z,27.9
